Time;durP1;ratioP1;P1;durP2;ratioP2;P2;SDS_P1;SDS_P2;PMS_P1;PMS_P2;Temp;Humidity;BMP_temperature;BMP_pressure;BME280_temperature;BME280_humidity;BME280_pressure;Samples;Min_cycle;Max_cycle;Signal;HPM_P1;HPM_P2
2022/03/15 00:01:23;;;;;;;40.58;27.50;;;;;;;5.23;100.00;102655.13;5092687;28;20032;-66
2022/03/15 00:03:48;;;;;;;42.25;27.85;;;;;;;5.15;100.00;102658.16;5092617;28;20065;-66
2022/03/15 00:06:14;;;;;;;42.45;27.33;;;;;;;5.21;100.00;102655.88;5092369;28;20081;-66
2022/03/15 00:08:40;;;;;;;38.25;26.08;;;;;;;5.15;100.00;102650.28;5088199;28;20549;-66
2022/03/15 00:11:06;;;;;;;40.90;28.42;;;;;;;5.16;100.00;102647.75;5085656;28;20070;-66
2022/03/15 00:13:37;;;;;;;39.97;26.88;;;;;;;5.19;100.00;102653.16;5089373;28;20020;-66
2022/03/15 00:16:04;;;;;;;39.10;27.25;;;;;;;5.13;100.00;102649.31;5092463;28;20028;-66
2022/03/15 00:18:30;;;;;;;44.92;30.02;;;;;;;5.14;100.00;102645.84;5091957;28;20382;-66
2022/03/15 00:21:04;;;;;;;39.33;25.52;;;;;;;5.09;100.00;102647.34;5092421;28;20020;-66
2022/03/15 00:23:31;;;;;;;42.70;28.00;;;;;;;5.11;100.00;102640.44;5088056;28;20029;-66
2022/03/15 00:25:57;;;;;;;42.67;28.33;;;;;;;5.07;100.00;102636.78;5082368;28;20036;-66
2022/03/15 00:28:22;;;;;;;43.28;29.05;;;;;;;5.06;100.00;102638.47;5090143;28;20073;-66
2022/03/15 00:30:49;;;;;;;39.92;26.55;;;;;;;4.98;100.00;102637.16;5092397;28;20024;-66
2022/03/15 00:33:15;;;;;;;43.47;28.77;;;;;;;4.96;100.00;102636.16;5088787;28;20028;-66
2022/03/15 00:35:40;;;;;;;42.85;28.02;;;;;;;4.87;100.00;102641.78;5091847;28;20070;-65
2022/03/15 00:38:06;;;;;;;41.60;28.02;;;;;;;4.81;100.00;102641.44;5092501;28;20383;-65
2022/03/15 00:40:31;;;;;;;39.75;26.05;;;;;;;4.82;100.00;102640.63;5092266;28;20020;-65
2022/03/15 00:42:56;;;;;;;40.03;26.67;;;;;;;4.76;100.00;102647.22;5094875;28;20024;-65
2022/03/15 00:45:24;;;;;;;42.00;28.55;;;;;;;4.77;100.00;102644.69;5095875;28;20028;-66
2022/03/15 00:47:51;;;;;;;40.88;27.30;;;;;;;4.80;100.00;102636.13;5095712;28;20031;-66
2022/03/15 00:50:16;;;;;;;40.53;26.92;;;;;;;4.80;100.00;102633.50;5095871;28;20081;-65
2022/03/15 00:52:41;;;;;;;41.65;28.33;;;;;;;4.83;100.00;102631.03;5092852;28;20463;-66
2022/03/15 00:55:07;;;;;;;41.95;28.50;;;;;;;4.87;100.00;102633.91;5070791;28;20024;-65
2022/03/15 00:57:33;;;;;;;39.38;26.83;;;;;;;4.80;100.00;102630.88;5092925;28;20028;-66
2022/03/15 00:59:59;;;;;;;39.17;26.70;;;;;;;4.82;100.00;102630.16;5095729;28;20046;-66
2022/03/15 01:02:24;;;;;;;37.90;25.73;;;;;;;4.86;100.00;102626.91;5093701;28;20475;-65
2022/03/15 01:04:49;;;;;;;39.13;26.02;;;;;;;4.81;100.00;102624.84;5095184;28;20039;-66
2022/03/15 01:07:15;;;;;;;39.50;26.58;;;;;;;4.78;100.00;102627.28;5095715;28;20077;-66
2022/03/15 01:09:40;;;;;;;38.80;25.65;;;;;;;4.76;100.00;102624.56;5095503;28;20028;-66
2022/03/15 01:12:06;;;;;;;39.67;27.20;;;;;;;4.78;100.00;102625.56;5095394;28;20024;-65
2022/03/15 01:14:32;;;;;;;39.10;26.30;;;;;;;4.84;100.00;102631.13;5095416;28;20034;-65
2022/03/15 01:16:58;;;;;;;38.58;24.98;;;;;;;4.81;100.00;102630.97;5086827;28;20398;-66
2022/03/15 01:19:23;;;;;;;40.33;27.70;;;;;;;4.82;100.00;102631.84;5095318;28;20103;-66
2022/03/15 01:21:50;;;;;;;41.15;27.27;;;;;;;4.82;100.00;102629.22;5095108;28;20379;-66
2022/03/15 01:24:15;;;;;;;39.67;25.75;;;;;;;4.81;100.00;102625.72;5091550;28;20028;-65
2022/03/15 01:26:41;;;;;;;39.45;26.02;;;;;;;4.74;100.00;102626.19;5078640;28;20374;-65
2022/03/15 01:29:06;;;;;;;39.65;26.85;;;;;;;4.77;100.00;102628.97;5094661;28;20024;-65
2022/03/15 01:31:32;;;;;;;40.55;27.30;;;;;;;4.76;100.00;102616.72;5094799;28;20078;-66
2022/03/15 01:33:57;;;;;;;38.75;25.88;;;;;;;4.81;100.00;102609.09;5092717;28;20084;-66
2022/03/15 01:36:23;;;;;;;40.22;26.77;;;;;;;4.76;100.00;102605.31;5094579;28;20036;-65
2022/03/15 01:38:52;;;;;;;41.00;28.25;;;;;;;4.72;100.00;102605.13;5094687;28;20020;-65
2022/03/15 01:41:17;;;;;;;39.67;26.73;;;;;;;4.69;100.00;102601.47;5094799;28;20027;-65
2022/03/15 01:43:43;;;;;;;39.67;27.52;;;;;;;4.66;100.00;102601.25;5094556;28;20024;-66
2022/03/15 01:46:08;;;;;;;39.90;26.05;;;;;;;4.64;100.00;102595.03;5094530;28;20068;-66
2022/03/15 01:48:35;;;;;;;39.28;26.70;;;;;;;4.66;100.00;102598.63;5094946;28;20462;-66
2022/03/15 01:51:01;;;;;;;41.63;27.98;;;;;;;4.64;100.00;102600.28;5094594;28;20035;-65
2022/03/15 01:53:26;;;;;;;39.38;27.25;;;;;;;4.69;100.00;102591.88;5094632;28;20024;-66
2022/03/15 01:55:52;;;;;;;38.28;26.77;;;;;;;4.69;100.00;102588.38;5094461;28;20360;-65
2022/03/15 01:58:17;;;;;;;40.25;27.17;;;;;;;4.71;100.00;102587.59;5094355;28;20030;-65
2022/03/15 02:00:44;;;;;;;39.63;27.52;;;;;;;4.75;100.00;102587.78;5094193;28;20024;-66
2022/03/15 02:03:09;;;;;;;38.70;27.48;;;;;;;4.68;100.00;102592.69;5081955;28;20460;-66
2022/03/15 02:05:34;;;;;;;37.67;27.25;;;;;;;4.69;100.00;102593.59;5094065;28;20016;-66
2022/03/15 02:08:11;;;;;;;40.10;27.00;;;;;;;4.60;100.00;102591.38;5094133;28;20125;-66
2022/03/15 02:10:37;;;;;;;39.22;26.75;;;;;;;4.58;100.00;102597.31;5094299;28;20039;-67
2022/03/15 02:13:02;;;;;;;40.80;27.52;;;;;;;4.56;100.00;102586.75;5094302;28;20378;-67
2022/03/15 02:15:27;;;;;;;38.65;27.33;;;;;;;4.48;100.00;102591.53;5093841;28;20031;-66
2022/03/15 02:17:53;;;;;;;39.42;26.70;;;;;;;4.48;100.00;102586.31;5094077;28;20102;-67
2022/03/15 02:20:19;;;;;;;41.35;27.25;;;;;;;4.50;100.00;102576.84;5094087;28;20020;-66
2022/03/15 02:22:44;;;;;;;39.38;28.27;;;;;;;4.47;100.00;102570.50;5093815;28;20085;-66
2022/03/15 02:25:10;;;;;;;41.97;28.15;;;;;;;4.45;100.00;102573.03;5094033;28;20020;-66
2022/03/15 02:27:35;;;;;;;37.78;26.38;;;;;;;4.40;100.00;102564.03;5093897;28;20012;-66
2022/03/15 02:30:01;;;;;;;39.65;28.30;;;;;;;4.30;100.00;102557.34;5093726;28;20024;-66
2022/03/15 02:32:26;;;;;;;39.38;28.10;;;;;;;4.35;100.00;102557.63;5093835;28;20024;-66
2022/03/15 02:34:52;;;;;;;40.75;28.42;;;;;;;4.28;100.00;102555.47;5093355;28;20083;-66
2022/03/15 02:37:17;;;;;;;40.97;28.02;;;;;;;4.28;100.00;102558.06;5093625;28;20057;-66
2022/03/15 02:39:43;;;;;;;39.30;27.25;;;;;;;4.27;100.00;102558.91;5093764;28;20016;-66
2022/03/15 02:42:08;;;;;;;39.53;29.17;;;;;;;4.33;100.00;102551.41;5093481;28;20028;-66
2022/03/15 02:44:33;;;;;;;40.78;28.77;;;;;;;4.33;100.00;102562.78;5093609;28;20024;-66
2022/03/15 02:46:59;;;;;;;40.88;28.80;;;;;;;4.22;100.00;102568.22;5093361;28;20020;-67
2022/03/15 02:49:24;;;;;;;40.20;27.80;;;;;;;4.29;100.00;102552.03;5093369;28;20050;-67
2022/03/15 02:51:49;;;;;;;39.72;27.92;;;;;;;4.35;100.00;102558.53;5093490;28;20084;-67
2022/03/15 02:54:14;;;;;;;41.20;28.15;;;;;;;4.33;100.00;102541.81;5093143;28;20028;-67
2022/03/15 02:56:45;;;;;;;40.53;28.40;;;;;;;4.37;100.00;102545.53;5093217;28;20031;-67
2022/03/15 02:59:14;;;;;;;40.97;30.17;;;;;;;4.35;100.00;102544.53;5085139;28;20073;-67
2022/03/15 03:01:44;;;;;;;40.88;29.60;;;;;;;4.40;100.00;102544.78;5084974;28;20024;-67
2022/03/15 03:04:10;;;;;;;42.38;29.27;;;;;;;4.37;100.00;102532.44;5092901;28;20028;-67
2022/03/15 03:06:41;;;;;;;42.47;29.58;;;;;;;4.33;100.00;102519.97;5093101;28;20036;-67
2022/03/15 03:09:07;;;;;;;40.10;27.70;;;;;;;4.33;100.00;102519.97;5090277;28;20020;-67
2022/03/15 03:11:32;;;;;;;42.17;28.00;;;;;;;4.32;100.00;102507.69;5082140;28;20028;-68
2022/03/15 03:13:58;;;;;;;40.13;29.13;;;;;;;4.29;100.00;102502.28;5091574;28;20110;-68
2022/03/15 03:16:24;;;;;;;41.83;29.38;;;;;;;4.25;100.00;102506.47;5093135;28;20371;-67
2022/03/15 03:18:52;;;;;;;39.67;28.98;;;;;;;4.16;100.00;102508.53;5089368;28;20027;-67
2022/03/15 03:21:17;;;;;;;41.28;28.88;;;;;;;4.17;100.00;102521.72;5092765;28;20032;-66
2022/03/15 03:23:43;;;;;;;39.78;29.33;;;;;;;4.23;100.00;102513.31;5093061;28;20072;-67
2022/03/15 03:26:08;;;;;;;39.33;27.67;;;;;;;4.13;100.00;102514.50;5092981;28;20028;-67
2022/03/15 03:28:36;;;;;;;39.38;28.05;;;;;;;4.19;100.00;102504.41;5091181;28;20028;-67
2022/03/15 03:31:06;;;;;;;41.35;29.52;;;;;;;4.19;100.00;102507.03;5092771;28;20020;-65
2022/03/15 03:33:32;;;;;;;45.35;29.70;;;;;;;4.15;100.00;102507.66;5091358;28;20114;-65
2022/03/15 03:35:58;;;;;;;40.30;28.88;;;;;;;4.13;100.00;102506.66;5092597;28;20127;-65
2022/03/15 03:38:24;;;;;;;41.47;30.90;;;;;;;4.15;100.00;102499.81;5092874;28;20494;-66
2022/03/15 03:40:50;;;;;;;44.92;32.78;;;;;;;4.22;100.00;102505.38;5092863;28;20048;-66
2022/03/15 03:43:15;;;;;;;45.13;31.63;;;;;;;4.23;100.00;102499.34;5093056;28;20024;-65
2022/03/15 03:45:41;;;;;;;41.80;31.45;;;;;;;4.17;100.00;102499.88;5084678;28;20115;-65
2022/03/15 03:48:07;;;;;;;41.05;30.17;;;;;;;4.14;100.00;102503.22;5086685;28;20378;-66
2022/03/15 03:50:34;;;;;;;41.00;31.05;;;;;;;4.15;100.00;102504.13;5091039;28;20024;-66
2022/03/15 03:52:59;;;;;;;44.25;32.85;;;;;;;4.14;100.00;102503.22;5092426;28;20115;-67
2022/03/15 03:55:25;;;;;;;42.97;32.42;;;;;;;4.16;100.00;102498.97;5089218;28;20099;-65
2022/03/15 03:57:50;;;;;;;41.00;31.67;;;;;;;4.14;100.00;102495.38;5092586;28;20020;-65
2022/03/15 04:00:16;;;;;;;42.63;31.65;;;;;;;4.11;100.00;102489.06;5092446;28;20031;-66
2022/03/15 04:02:42;;;;;;;40.35;30.08;;;;;;;4.11;100.00;102497.81;5092710;28;20026;-65
2022/03/15 04:05:08;;;;;;;40.22;29.73;;;;;;;4.08;100.00;102491.50;5092923;28;20056;-66
2022/03/15 04:07:35;;;;;;;41.05;30.17;;;;;;;4.08;100.00;102487.19;5081692;28;20024;-66
2022/03/15 04:10:02;;;;;;;40.30;29.70;;;;;;;4.06;100.00;102498.38;5087936;28;20058;-65
2022/03/15 04:12:29;;;;;;;40.63;29.90;;;;;;;4.17;100.00;102492.03;5091184;28;20124;-65
2022/03/15 04:14:54;;;;;;;40.83;29.50;;;;;;;4.16;100.00;102491.09;5092238;28;20081;-65
2022/03/15 04:17:20;;;;;;;40.38;29.55;;;;;;;4.14;100.00;102504.94;5094320;28;20028;-65
2022/03/15 04:19:45;;;;;;;41.75;29.55;;;;;;;4.11;100.00;102500.44;5096617;28;20047;-65
2022/03/15 04:22:10;;;;;;;39.72;28.80;;;;;;;4.12;100.00;102503.94;5096205;28;20028;-65
2022/03/15 04:24:36;;;;;;;39.53;29.92;;;;;;;4.11;100.00;102504.78;5096111;28;20065;-65
2022/03/15 04:27:01;;;;;;;41.38;29.52;;;;;;;4.05;100.00;102505.31;5096241;28;20111;-65
2022/03/15 04:29:27;;;;;;;42.92;30.73;;;;;;;4.05;100.00;102509.63;5096302;28;20069;-65
2022/03/15 04:31:52;;;;;;;42.25;31.50;;;;;;;4.00;100.00;102502.44;5096213;28;20493;-66
2022/03/15 04:34:18;;;;;;;39.22;29.40;;;;;;;3.99;100.00;102511.09;5095825;28;20136;-66
2022/03/15 04:36:44;;;;;;;39.97;29.73;;;;;;;4.01;100.00;102501.63;5096190;28;20020;-65
2022/03/15 04:39:11;;;;;;;40.60;30.05;;;;;;;4.04;100.00;102498.28;5095901;28;20076;-65
2022/03/15 04:41:37;;;;;;;40.30;29.50;;;;;;;4.03;100.00;102498.19;5096116;28;20020;-65
2022/03/15 04:44:03;;;;;;;42.47;30.23;;;;;;;4.04;100.00;102495.66;5095796;28;20012;-66
2022/03/15 04:46:28;;;;;;;40.92;29.08;;;;;;;3.97;100.00;102491.78;5096014;28;20028;-66
2022/03/15 04:48:54;;;;;;;39.45;29.27;;;;;;;4.00;100.00;102488.44;5095958;28;20016;-66
2022/03/15 04:51:20;;;;;;;40.40;29.50;;;;;;;3.94;100.00;102491.59;5095596;28;20200;-66
2022/03/15 04:53:47;;;;;;;38.97;29.25;;;;;;;3.91;100.00;102488.81;5095619;28;20028;-66
2022/03/15 04:56:12;;;;;;;38.97;29.27;;;;;;;3.96;100.00;102483.84;5095597;28;20032;-66
2022/03/15 04:58:37;;;;;;;41.33;29.92;;;;;;;3.94;100.00;102485.47;5095710;28;20114;-66
2022/03/15 05:01:03;;;;;;;39.80;29.63;;;;;;;3.96;100.00;102478.59;5095637;28;20086;-66
2022/03/15 05:03:28;;;;;;;39.78;29.52;;;;;;;3.94;100.00;102475.91;5094352;28;20024;-66
2022/03/15 05:05:53;;;;;;;39.60;28.35;;;;;;;3.96;100.00;102474.28;5095325;28;20073;-66
2022/03/15 05:08:19;;;;;;;39.53;28.73;;;;;;;3.91;100.00;102472.22;5094127;28;20451;-66
2022/03/15 05:13:28;;;;;;;38.05;28.08;;;;;;;3.95;100.00;102475.09;5086175;28;20083;-66
2022/03/15 05:15:53;;;;;;;40.05;28.65;;;;;;;3.96;100.00;102479.53;5088666;28;20425;-66
2022/03/15 05:18:19;;;;;;;38.22;28.50;;;;;;;3.93;100.00;102467.97;5092090;28;20478;-66
2022/03/15 05:20:45;;;;;;;40.30;28.85;;;;;;;3.91;100.00;102467.88;5095071;28;20390;-66
2022/03/15 05:23:10;;;;;;;39.97;28.52;;;;;;;3.90;100.00;102466.06;5094171;28;20027;-65
2022/03/15 05:25:35;;;;;;;37.95;27.33;;;;;;;3.89;100.00;102471.22;5094972;28;20512;-66
2022/03/15 05:28:01;;;;;;;38.38;28.10;;;;;;;3.92;100.00;102471.41;5094578;28;20024;-66
2022/03/15 05:30:26;;;;;;;38.85;27.98;;;;;;;3.89;100.00;102474.75;5095088;28;20429;-66
2022/03/15 05:32:51;;;;;;;37.45;28.30;;;;;;;3.86;100.00;102473.66;5094944;28;20012;-66
2022/03/15 05:35:17;;;;;;;39.38;28.13;;;;;;;3.87;100.00;102470.25;5094512;28;20552;-67
2022/03/15 05:37:42;;;;;;;40.67;28.60;;;;;;;3.85;100.00;102462.31;5094867;28;20031;-67
2022/03/15 05:40:09;;;;;;;41.42;28.40;;;;;;;3.86;100.00;102457.97;5094596;28;20435;-67
2022/03/15 05:42:35;;;;;;;38.28;27.63;;;;;;;3.78;100.00;102445.34;5094938;28;20024;-67
2022/03/15 05:45:01;;;;;;;36.13;25.55;;;;;;;3.80;100.00;102454.19;5094770;28;20020;-67
2022/03/15 05:47:26;;;;;;;36.10;26.52;;;;;;;3.71;100.00;102448.41;5094426;28;20455;-67
2022/03/15 05:49:51;;;;;;;34.80;25.38;;;;;;;3.66;100.00;102455.09;5094589;28;20031;-66
2022/03/15 05:52:16;;;;;;;36.40;26.17;;;;;;;3.70;100.00;102445.72;5094698;28;20055;-67
2022/03/15 05:54:42;;;;;;;36.58;25.30;;;;;;;3.76;100.00;102446.09;5094173;28;20060;-67
2022/03/15 05:57:08;;;;;;;36.28;25.58;;;;;;;3.70;100.00;102451.88;5094881;28;20032;-67
2022/03/15 05:59:33;;;;;;;37.72;26.05;;;;;;;3.75;100.00;102442.53;5094561;28;20020;-67
2022/03/15 06:01:58;;;;;;;38.28;27.17;;;;;;;3.73;100.00;102445.88;5094404;28;20111;-67
2022/03/15 06:04:25;;;;;;;37.60;26.50;;;;;;;3.75;100.00;102444.28;5094743;28;20063;-67
2022/03/15 06:06:51;;;;;;;35.55;25.98;;;;;;;3.82;100.00;102443.81;5084546;28;20568;-67
2022/03/15 06:09:17;;;;;;;36.42;26.52;;;;;;;3.81;100.00;102445.50;5093995;28;20028;-67
2022/03/15 06:11:43;;;;;;;37.33;26.20;;;;;;;3.83;100.00;102445.63;5094431;28;20020;-67
2022/03/15 06:14:08;;;;;;;37.90;26.83;;;;;;;3.83;100.00;102443.00;5093956;28;20489;-67
2022/03/15 06:16:33;;;;;;;36.03;25.63;;;;;;;3.90;100.00;102444.25;5092162;28;20035;-67
2022/03/15 06:18:59;;;;;;;36.63;25.33;;;;;;;3.86;100.00;102437.94;5094327;28;20063;-67
2022/03/15 06:21:24;;;;;;;32.83;23.65;;;;;;;3.88;100.00;102443.28;5093880;28;20127;-67
2022/03/15 06:23:50;;;;;;;40.00;25.83;;;;;;;3.91;100.00;102444.34;5093800;28;20027;-67
2022/03/15 06:26:18;;;;;;;35.00;23.95;;;;;;;3.99;100.00;102434.28;5093772;28;20055;-67
2022/03/15 06:28:43;;;;;;;34.20;23.90;;;;;;;4.04;100.00;102432.84;5093680;28;20035;-67
2022/03/15 06:31:09;;;;;;;37.33;23.83;;;;;;;4.12;100.00;102441.13;5093564;28;20024;-66
2022/03/15 06:33:34;;;;;;;36.00;24.33;;;;;;;4.10;100.00;102443.66;5093731;28;20109;-66
2022/03/15 06:36:00;;;;;;;35.67;24.08;;;;;;;4.17;100.00;102437.06;5093812;28;20083;-66
2022/03/15 06:38:26;;;;;;;33.38;23.05;;;;;;;4.19;100.00;102433.72;5093528;28;20487;-66
2022/03/15 06:40:52;;;;;;;33.45;22.63;;;;;;;4.20;100.00;102442.47;5086989;28;20024;-69
2022/03/15 06:43:18;;;;;;;35.83;23.08;;;;;;;4.25;100.00;102435.78;5078011;28;20036;-67
2022/03/15 06:45:43;;;;;;;34.85;22.20;;;;;;;4.28;100.00;102432.41;5076882;28;20119;-67
2022/03/15 06:48:09;;;;;;;34.97;22.98;;;;;;;4.29;100.00;102426.38;5078479;28;20028;-68
2022/03/15 06:50:35;;;;;;;35.67;23.10;;;;;;;4.33;100.00;102425.72;5079686;28;20028;-68
2022/03/15 06:53:00;;;;;;;35.33;23.17;;;;;;;4.40;100.00;102433.09;5073019;28;20071;-67
2022/03/15 06:55:26;;;;;;;34.70;22.70;;;;;;;4.45;100.00;102421.13;5079460;28;20463;-67
2022/03/15 06:57:52;;;;;;;35.55;22.75;;;;;;;4.52;100.00;102418.03;5078381;28;20032;-68
2022/03/15 07:00:18;;;;;;;34.78;22.23;;;;;;;4.58;100.00;102421.81;5077911;28;20066;-66
2022/03/15 07:02:43;;;;;;;34.53;22.92;;;;;;;4.62;100.00;102414.22;5079085;28;20028;-66
2022/03/15 07:05:09;;;;;;;33.30;22.00;;;;;;;4.66;100.00;102418.81;5076913;28;20023;-67
2022/03/15 07:07:35;;;;;;;32.85;21.70;;;;;;;4.71;100.00;102419.94;5078765;28;20028;-64
2022/03/15 07:10:01;;;;;;;34.05;22.58;;;;;;;4.75;100.00;102414.84;5076250;28;20070;-65
2022/03/15 07:12:27;;;;;;;34.53;21.95;;;;;;;4.85;100.00;102417.16;5077188;28;20023;-66
2022/03/15 07:14:52;;;;;;;34.95;22.13;;;;;;;4.89;100.00;102414.78;5079331;28;20025;-66
2022/03/15 07:17:19;;;;;;;39.38;22.60;;;;;;;4.94;100.00;102422.00;5080042;28;20035;-64
2022/03/15 07:19:45;;;;;;;32.20;22.08;;;;;;;4.99;100.00;102412.63;5078728;28;20080;-65
2022/03/15 07:22:10;;;;;;;32.85;21.38;;;;;;;5.05;100.00;102405.06;5078820;28;20028;-65
2022/03/15 07:24:36;;;;;;;33.78;21.13;;;;;;;5.06;100.00;102418.25;5076092;28;20021;-65
2022/03/15 07:27:02;;;;;;;31.70;20.05;;;;;;;5.13;100.00;102409.00;5079704;28;20573;-65
2022/03/15 07:29:27;;;;;;;33.60;19.92;;;;;;;5.17;100.00;102413.59;5075700;28;20115;-66
2022/03/15 07:31:53;;;;;;;31.80;19.13;;;;;;;5.20;100.00;102415.47;5078618;28;20115;-66
2022/03/15 07:34:19;;;;;;;31.92;19.30;;;;;;;5.25;100.00;102413.97;5078253;28;20052;-65
2022/03/15 07:36:45;;;;;;;35.33;19.05;;;;;;;5.33;100.00;102409.13;5079299;28;20048;-65
2022/03/15 07:39:11;;;;;;;32.75;19.45;;;;;;;5.37;100.00;102400.59;5076842;28;20570;-65
2022/03/15 07:41:38;;;;;;;32.13;19.35;;;;;;;5.41;100.00;102394.66;5077941;28;20040;-67
2022/03/15 07:44:04;;;;;;;32.90;19.38;;;;;;;5.44;100.00;102397.44;5080271;28;20032;-67
2022/03/15 07:46:30;;;;;;;29.30;18.65;;;;;;;5.47;100.00;102408.09;5078150;28;20055;-67
2022/03/15 07:48:55;;;;;;;31.48;19.10;;;;;;;5.49;100.00;102401.22;5077487;28;20025;-67
2022/03/15 07:51:20;;;;;;;33.40;19.75;;;;;;;5.56;100.00;102405.94;5076998;28;20556;-67
2022/03/15 07:53:46;;;;;;;31.15;17.23;;;;;;;5.63;100.00;102404.50;5080084;28;20025;-67
2022/03/15 07:56:11;;;;;;;29.63;16.80;;;;;;;5.69;100.00;102407.41;5084990;28;20036;-67
2022/03/15 07:58:37;;;;;;;29.27;16.00;;;;;;;5.75;100.00;102401.59;5080223;28;20031;-67
2022/03/15 08:01:04;;;;;;;32.97;16.65;;;;;;;5.78;100.00;102403.47;5084875;28;20054;-67
2022/03/15 08:03:29;;;;;;;28.50;15.77;;;;;;;5.84;100.00;102402.03;5087469;28;20028;-66
2022/03/15 08:05:55;;;;;;;29.27;15.30;;;;;;;5.88;100.00;102389.97;5077882;28;20036;-67
2022/03/15 08:08:20;;;;;;;28.67;15.35;;;;;;;5.91;100.00;102396.28;5080796;28;20391;-66
2022/03/15 08:10:45;;;;;;;28.35;14.50;;;;;;;5.93;100.00;102391.97;5093923;28;20028;-67
2022/03/15 08:13:11;;;;;;;27.67;14.52;;;;;;;5.99;100.00;102385.28;5096249;28;20486;-66
2022/03/15 08:15:37;;;;;;;26.58;13.60;;;;;;;6.02;100.00;102382.78;5081542;28;20036;-66
2022/03/15 08:18:03;;;;;;;30.13;14.77;;;;;;;6.08;100.00;102380.44;5080995;28;20077;-68
2022/03/15 08:20:32;;;;;;;27.38;13.45;;;;;;;6.11;100.00;102383.22;5083321;28;20036;-66
2022/03/15 08:22:58;;;;;;;30.90;13.98;;;;;;;6.16;100.00;102381.72;5075606;28;20020;-66
2022/03/15 08:25:24;;;;;;;28.80;13.38;;;;;;;6.19;100.00;102379.22;5077256;28;20041;-69
2022/03/15 08:27:49;;;;;;;27.75;12.15;;;;;;;6.24;100.00;102372.44;5078194;28;20382;-68
2022/03/15 08:30:15;;;;;;;28.45;12.82;;;;;;;6.31;100.00;102370.13;5077814;28;20058;-68
2022/03/15 08:32:40;;;;;;;26.23;12.70;;;;;;;6.37;100.00;102368.66;5080635;28;20364;-70
2022/03/15 08:35:06;;;;;;;31.23;12.82;;;;;;;6.44;100.00;102369.84;5082980;28;20100;-67
2022/03/15 08:37:31;;;;;;;30.45;13.25;;;;;;;6.53;100.00;102361.50;5080463;28;20032;-68
2022/03/15 08:39:57;;;;;;;25.48;12.00;;;;;;;6.56;100.00;102359.88;5081582;28;20024;-67
2022/03/15 08:42:23;;;;;;;30.00;12.60;;;;;;;6.63;100.00;102361.97;5090423;28;20020;-67
2022/03/15 08:44:48;;;;;;;28.02;12.30;;;;;;;6.73;100.00;102363.28;5083725;28;20054;-67
2022/03/15 08:47:14;;;;;;;27.55;12.40;;;;;;;6.78;100.00;102367.00;5084697;28;20017;-67
2022/03/15 08:49:41;;;;;;;25.73;12.07;;;;;;;6.82;100.00;102365.41;5077671;28;20479;-67
2022/03/15 08:52:08;;;;;;;27.17;12.35;;;;;;;6.87;100.00;102362.97;5085058;28;20020;-68
2022/03/15 08:54:34;;;;;;;26.70;12.60;;;;;;;6.91;100.00;102363.19;5085632;28;20489;-68
2022/03/15 08:57:00;;;;;;;28.42;12.35;;;;;;;6.96;100.00;102351.16;5081177;28;20028;-66
2022/03/15 08:59:26;;;;;;;28.52;12.40;;;;;;;7.00;100.00;102352.16;5082876;28;20031;-66
2022/03/15 09:01:52;;;;;;;28.33;12.52;;;;;;;7.02;100.00;102354.84;5086366;28;20123;-66
2022/03/15 09:04:17;;;;;;;28.25;13.10;;;;;;;7.01;100.00;102353.06;5083318;28;20028;-67
2022/03/15 09:06:43;;;;;;;27.75;12.70;;;;;;;7.06;100.00;102341.00;5083491;28;20715;-67
2022/03/15 09:09:08;;;;;;;26.20;12.25;;;;;;;7.09;100.00;102351.66;5094438;28;20082;-67
2022/03/15 09:11:34;;;;;;;29.70;12.45;;;;;;;7.16;100.00;102345.81;5078953;28;20383;-66
2022/03/15 09:13:59;;;;;;;27.42;13.75;;;;;;;7.17;100.00;102339.75;5091720;28;20127;-67
2022/03/15 09:16:26;;;;;;;27.73;14.10;;;;;;;7.25;100.00;102338.34;5094641;28;20047;-67
2022/03/15 09:18:51;;;;;;;27.30;13.30;;;;;;;7.36;100.00;102343.16;5094173;28;20032;-66
2022/03/15 09:21:18;;;;;;;33.88;17.83;;;;;;;7.45;100.00;102346.16;5094181;28;20024;-68
2022/03/15 09:23:43;;;;;;;30.73;15.45;;;;;;;7.54;100.00;102349.13;5094894;28;20103;-67
2022/03/15 09:26:09;;;;;;;31.00;14.27;;;;;;;7.63;100.00;102357.44;5095011;28;20399;-66
2022/03/15 09:28:35;;;;;;;28.13;14.52;;;;;;;7.71;100.00;102349.84;5095140;28;20467;-66
2022/03/15 09:31:01;;;;;;;28.67;13.13;;;;;;;7.75;100.00;102353.50;5095049;28;20532;-66
2022/03/15 09:33:30;;;;;;;28.60;13.55;;;;;;;7.81;100.00;102351.09;5093820;28;20073;-67
2022/03/15 09:35:56;;;;;;;28.08;13.60;;;;;;;7.86;100.00;102360.06;5087006;28;20117;-68
2022/03/15 09:38:22;;;;;;;28.80;13.52;;;;;;;7.94;100.00;102349.84;5094860;28;20024;-68
2022/03/15 09:40:51;;;;;;;28.73;13.40;;;;;;;8.01;100.00;102352.78;5095004;28;20043;-68
2022/03/15 09:43:21;;;;;;;26.83;13.02;;;;;;;8.12;100.00;102353.19;5094924;28;20059;-68
2022/03/15 09:45:48;;;;;;;27.33;13.55;;;;;;;8.17;100.00;102348.13;5085964;28;20035;-69
2022/03/15 09:48:18;;;;;;;27.20;13.10;;;;;;;8.20;100.00;102345.59;5081465;28;20398;-69
2022/03/15 09:50:48;;;;;;;29.13;13.63;;;;;;;8.28;100.00;102349.41;5078163;28;20390;-67
2022/03/15 09:53:15;;;;;;;27.40;13.48;;;;;;;8.43;100.00;102353.44;5079260;28;20032;-67
2022/03/15 09:55:44;;;;;;;26.02;12.52;;;;;;;8.44;100.00;102345.63;5082992;28;20031;-65
2022/03/15 09:58:14;;;;;;;27.40;12.52;;;;;;;8.50;100.00;102344.97;5078946;28;20021;-65
2022/03/15 10:00:41;;;;;;;28.70;13.15;;;;;;;8.58;100.00;102342.59;5075209;28;20391;-66
2022/03/15 10:03:07;;;;;;;27.50;12.80;;;;;;;8.69;100.00;102335.97;5077015;28;20032;-66
2022/03/15 10:05:33;;;;;;;29.88;12.98;;;;;;;8.76;100.00;102332.72;5079307;28;20024;-66
2022/03/15 10:07:58;;;;;;;26.50;12.75;;;;;;;8.78;100.00;102332.78;5080796;28;20043;-65
2022/03/15 10:10:24;;;;;;;25.98;12.90;;;;;;;8.81;100.00;102330.25;5076693;28;20095;-66
2022/03/15 10:12:50;;;;;;;30.73;13.63;;;;;;;8.87;100.00;102330.47;5078254;28;20095;-66
2022/03/15 10:15:19;;;;;;;27.25;13.65;;;;;;;8.91;100.00;102332.34;5078707;28;20399;-65
2022/03/15 10:17:52;;;;;;;26.85;12.82;;;;;;;9.13;100.00;102333.09;5078552;28;20054;-65
2022/03/15 10:20:18;;;;;;;27.33;12.65;;;;;;;9.29;100.00;102327.53;5077629;28;20378;-65
2022/03/15 10:22:55;;;;;;;28.13;12.38;;;;;;;9.39;100.00;102321.69;5076780;28;20028;-67
2022/03/15 10:25:22;;;;;;;25.70;12.57;;;;;;;9.36;100.00;102318.03;5079652;28;20096;-66
2022/03/15 10:27:53;;;;;;;29.75;13.45;;;;;;;9.42;100.00;102312.94;5079351;28;20083;-66
2022/03/15 10:30:19;;;;;;;28.13;13.15;;;;;;;9.40;100.00;102307.63;5078589;28;20023;-65
2022/03/15 10:32:47;;;;;;;29.40;13.18;;;;;;;9.43;100.00;102313.00;5079268;28;20046;-66
2022/03/15 10:35:16;;;;;;;25.95;12.38;;;;;;;9.65;100.00;102311.06;5074592;28;20079;-66
2022/03/15 10:37:41;;;;;;;25.77;12.48;;;;;;;9.67;100.00;102293.53;5078702;28;20102;-67
2022/03/15 10:40:07;;;;;;;25.20;12.10;;;;;;;9.73;100.00;102291.06;5079170;28;20020;-65
2022/03/15 10:42:38;;;;;;;27.00;12.15;;;;;;;9.76;100.00;102295.56;5072810;28;20492;-66
2022/03/15 10:45:17;;;;;;;26.88;11.68;;;;;;;9.86;100.00;102292.34;5073470;28;20070;-67
2022/03/15 10:47:53;;;;;;;28.15;11.77;;;;;;;9.86;100.00;102291.44;5076151;28;20040;-66
2022/03/15 10:50:19;;;;;;;27.75;11.50;;;;;;;9.98;100.00;102278.59;5075512;28;20419;-65
2022/03/15 10:52:46;;;;;;;24.67;10.77;;;;;;;10.03;100.00;102279.66;5076395;28;20077;-66
2022/03/15 10:55:16;;;;;;;26.50;11.05;;;;;;;10.06;100.00;102285.03;5080177;28;20068;-67
2022/03/15 10:57:45;;;;;;;24.42;10.80;;;;;;;10.15;100.00;102287.03;5077527;28;20025;-67
2022/03/15 11:00:11;;;;;;;24.83;10.85;;;;;;;10.22;99.74;102274.88;5074539;28;20037;-66
2022/03/15 11:02:37;;;;;;;24.90;10.93;;;;;;;10.35;99.57;102271.75;5077642;28;20059;-66
2022/03/15 11:05:02;;;;;;;27.17;10.80;;;;;;;10.39;99.67;102278.94;5079845;28;20060;-66
2022/03/15 11:07:37;;;;;;;25.17;10.10;;;;;;;10.42;97.77;102273.72;5078161;28;20463;-66